sensor_id;sensor_type;location;lat;lon;timestamp;P1;durP1;ratioP1;P2;durP2;ratioP2
13959;SDS011;7052;51.050;3.716;2023-05-29T00:00:33;19.95;;;13.43;;
13959;SDS011;7052;51.050;3.716;2023-05-29T00:03:03;19.55;;;12.38;;
13959;SDS011;7052;51.050;3.716;2023-05-29T00:05:39;20.15;;;13.40;;
13959;SDS011;7052;51.050;3.716;2023-05-29T00:08:13;21.77;;;14.75;;
13959;SDS011;7052;51.050;3.716;2023-05-29T00:10:53;23.80;;;15.23;;
13959;SDS011;7052;51.050;3.716;2023-05-29T00:19:42;24.08;;;14.73;;
13959;SDS011;7052;51.050;3.716;2023-05-29T00:22:23;17.65;;;9.55;;
13959;SDS011;7052;51.050;3.716;2023-05-29T00:24:55;14.50;;;9.20;;
13959;SDS011;7052;51.050;3.716;2023-05-29T00:27:36;16.87;;;8.70;;
13959;SDS011;7052;51.050;3.716;2023-05-29T00:30:17;13.43;;;7.63;;
13959;SDS011;7052;51.050;3.716;2023-05-29T00:32:47;10.82;;;6.82;;
13959;SDS011;7052;51.050;3.716;2023-05-29T00:35:18;11.65;;;8.18;;
13959;SDS011;7052;51.050;3.716;2023-05-29T00:38:00;10.80;;;7.53;;
13959;SDS011;7052;51.050;3.716;2023-05-29T00:40:29;15.00;;;8.17;;
13959;SDS011;7052;51.050;3.716;2023-05-29T00:42:58;12.15;;;8.48;;
13959;SDS011;7052;51.050;3.716;2023-05-29T00:45:28;16.92;;;9.30;;
13959;SDS011;7052;51.050;3.716;2023-05-29T00:48:14;15.48;;;9.13;;
13959;SDS011;7052;51.050;3.716;2023-05-29T00:50:43;13.82;;;9.30;;
13959;SDS011;7052;51.050;3.716;2023-05-29T00:53:18;15.20;;;7.90;;
13959;SDS011;7052;51.050;3.716;2023-05-29T00:55:49;12.20;;;6.77;;
13959;SDS011;7052;51.050;3.716;2023-05-29T00:58:30;15.43;;;7.30;;
13959;SDS011;7052;51.050;3.716;2023-05-29T01:00:59;13.13;;;6.83;;
13959;SDS011;7052;51.050;3.716;2023-05-29T01:03:42;14.80;;;5.50;;
13959;SDS011;7052;51.050;3.716;2023-05-29T01:06:12;8.83;;;4.67;;
13959;SDS011;7052;51.050;3.716;2023-05-29T01:08:41;9.97;;;4.57;;
13959;SDS011;7052;51.050;3.716;2023-05-29T01:11:24;8.73;;;4.30;;
13959;SDS011;7052;51.050;3.716;2023-05-29T01:14:15;13.50;;;4.10;;
13959;SDS011;7052;51.050;3.716;2023-05-29T01:17:05;14.07;;;4.67;;
13959;SDS011;7052;51.050;3.716;2023-05-29T01:19:46;10.30;;;4.30;;
13959;SDS011;7052;51.050;3.716;2023-05-29T01:22:34;9.20;;;3.80;;
13959;SDS011;7052;51.050;3.716;2023-05-29T01:25:23;14.03;;;3.97;;
13959;SDS011;7052;51.050;3.716;2023-05-29T01:28:16;10.70;;;3.80;;
13959;SDS011;7052;51.050;3.716;2023-05-29T01:30:48;13.40;;;4.13;;
13959;SDS011;7052;51.050;3.716;2023-05-29T01:33:17;9.70;;;3.70;;
13959;SDS011;7052;51.050;3.716;2023-05-29T01:35:57;8.63;;;3.67;;
13959;SDS011;7052;51.050;3.716;2023-05-29T01:38:27;9.43;;;4.13;;
13959;SDS011;7052;51.050;3.716;2023-05-29T01:40:55;15.67;;;3.80;;
13959;SDS011;7052;51.050;3.716;2023-05-29T01:43:38;9.40;;;3.67;;
13959;SDS011;7052;51.050;3.716;2023-05-29T01:46:20;9.40;;;3.50;;
13959;SDS011;7052;51.050;3.716;2023-05-29T01:48:50;11.63;;;3.70;;
13959;SDS011;7052;51.050;3.716;2023-05-29T01:51:18;9.63;;;3.67;;
13959;SDS011;7052;51.050;3.716;2023-05-29T01:53:46;8.80;;;3.60;;
13959;SDS011;7052;51.050;3.716;2023-05-29T01:56:29;11.23;;;3.60;;
13959;SDS011;7052;51.050;3.716;2023-05-29T01:59:16;7.53;;;3.47;;
13959;SDS011;7052;51.050;3.716;2023-05-29T02:01:45;10.33;;;3.43;;
13959;SDS011;7052;51.050;3.716;2023-05-29T02:04:15;12.27;;;4.10;;
13959;SDS011;7052;51.050;3.716;2023-05-29T02:06:58;8.83;;;3.90;;
13959;SDS011;7052;51.050;3.716;2023-05-29T02:09:40;10.93;;;4.07;;
13959;SDS011;7052;51.050;3.716;2023-05-29T02:12:22;9.73;;;3.40;;
13959;SDS011;7052;51.050;3.716;2023-05-29T02:18:15;8.43;;;3.87;;
13959;SDS011;7052;51.050;3.716;2023-05-29T02:20:44;10.17;;;3.63;;
13959;SDS011;7052;51.050;3.716;2023-05-29T02:23:11;9.70;;;3.60;;
13959;SDS011;7052;51.050;3.716;2023-05-29T02:25:40;10.07;;;4.17;;
13959;SDS011;7052;51.050;3.716;2023-05-29T02:28:09;9.07;;;4.20;;
13959;SDS011;7052;51.050;3.716;2023-05-29T02:30:50;9.93;;;4.30;;
13959;SDS011;7052;51.050;3.716;2023-05-29T02:43:07;11.07;;;4.10;;
13959;SDS011;7052;51.050;3.716;2023-05-29T02:45:40;8.20;;;3.87;;
13959;SDS011;7052;51.050;3.716;2023-05-29T02:48:42;9.37;;;3.47;;
13959;SDS011;7052;51.050;3.716;2023-05-29T02:51:24;9.20;;;3.73;;
13959;SDS011;7052;51.050;3.716;2023-05-29T02:54:06;10.43;;;3.53;;
13959;SDS011;7052;51.050;3.716;2023-05-29T02:56:40;8.60;;;3.50;;
13959;SDS011;7052;51.050;3.716;2023-05-29T02:59:23;9.53;;;3.63;;
13959;SDS011;7052;51.050;3.716;2023-05-29T03:01:51;9.10;;;3.37;;
13959;SDS011;7052;51.050;3.716;2023-05-29T03:04:19;10.00;;;3.73;;
13959;SDS011;7052;51.050;3.716;2023-05-29T03:06:46;7.43;;;3.63;;
13959;SDS011;7052;51.050;3.716;2023-05-29T03:09:13;8.80;;;3.47;;
13959;SDS011;7052;51.050;3.716;2023-05-29T03:11:43;8.97;;;3.67;;
13959;SDS011;7052;51.050;3.716;2023-05-29T03:14:15;9.53;;;3.97;;
13959;SDS011;7052;51.050;3.716;2023-05-29T03:16:48;8.07;;;3.90;;
13959;SDS011;7052;51.050;3.716;2023-05-29T03:19:15;12.73;;;3.43;;
13959;SDS011;7052;51.050;3.716;2023-05-29T03:21:46;12.87;;;3.63;;
13959;SDS011;7052;51.050;3.716;2023-05-29T03:24:29;15.83;;;7.93;;
13959;SDS011;7052;51.050;3.716;2023-05-29T03:27:01;10.37;;;4.63;;
13959;SDS011;7052;51.050;3.716;2023-05-29T03:29:30;10.93;;;4.07;;
13959;SDS011;7052;51.050;3.716;2023-05-29T03:32:01;12.20;;;4.27;;
13959;SDS011;7052;51.050;3.716;2023-05-29T03:34:30;9.87;;;3.80;;
13959;SDS011;7052;51.050;3.716;2023-05-29T03:36:57;10.70;;;3.67;;
13959;SDS011;7052;51.050;3.716;2023-05-29T03:39:25;14.23;;;4.20;;
13959;SDS011;7052;51.050;3.716;2023-05-29T03:41:52;9.93;;;3.60;;
13959;SDS011;7052;51.050;3.716;2023-05-29T03:44:20;9.40;;;3.93;;
13959;SDS011;7052;51.050;3.716;2023-05-29T03:46:51;11.93;;;4.03;;
13959;SDS011;7052;51.050;3.716;2023-05-29T03:49:33;11.87;;;3.57;;
13959;SDS011;7052;51.050;3.716;2023-05-29T03:52:02;9.30;;;3.63;;
13959;SDS011;7052;51.050;3.716;2023-05-29T03:54:30;12.77;;;3.50;;
13959;SDS011;7052;51.050;3.716;2023-05-29T03:56:58;12.13;;;4.20;;
13959;SDS011;7052;51.050;3.716;2023-05-29T03:59:27;13.43;;;3.73;;
13959;SDS011;7052;51.050;3.716;2023-05-29T04:01:54;8.47;;;3.87;;
13959;SDS011;7052;51.050;3.716;2023-05-29T04:04:21;9.23;;;3.30;;
13959;SDS011;7052;51.050;3.716;2023-05-29T04:06:50;12.37;;;3.70;;
13959;SDS011;7052;51.050;3.716;2023-05-29T04:09:17;10.00;;;3.37;;
13959;SDS011;7052;51.050;3.716;2023-05-29T04:11:45;14.00;;;3.50;;
13959;SDS011;7052;51.050;3.716;2023-05-29T04:14:12;12.77;;;4.00;;
13959;SDS011;7052;51.050;3.716;2023-05-29T04:16:39;14.43;;;4.13;;
13959;SDS011;7052;51.050;3.716;2023-05-29T04:19:06;9.07;;;3.47;;
13959;SDS011;7052;51.050;3.716;2023-05-29T04:21:33;14.37;;;4.13;;
13959;SDS011;7052;51.050;3.716;2023-05-29T04:24:02;10.23;;;3.60;;
13959;SDS011;7052;51.050;3.716;2023-05-29T04:26:30;13.43;;;3.60;;
13959;SDS011;7052;51.050;3.716;2023-05-29T04:29:00;10.13;;;3.53;;
13959;SDS011;7052;51.050;3.716;2023-05-29T04:31:28;13.87;;;4.30;;
13959;SDS011;7052;51.050;3.716;2023-05-29T04:33:55;13.87;;;3.77;;
13959;SDS011;7052;51.050;3.716;2023-05-29T04:36:22;10.40;;;3.83;;
13959;SDS011;7052;51.050;3.716;2023-05-29T04:38:51;11.70;;;3.63;;
13959;SDS011;7052;51.050;3.716;2023-05-29T04:41:20;11.97;;;3.87;;
13959;SDS011;7052;51.050;3.716;2023-05-29T04:43:48;11.10;;;3.30;;
13959;SDS011;7052;51.050;3.716;2023-05-29T04:46:18;17.43;;;4.47;;
13959;SDS011;7052;51.050;3.716;2023-05-29T04:48:45;12.13;;;3.70;;
13959;SDS011;7052;51.050;3.716;2023-05-29T04:51:12;9.77;;;3.47;;
13959;SDS011;7052;51.050;3.716;2023-05-29T04:53:42;11.60;;;3.40;;
13959;SDS011;7052;51.050;3.716;2023-05-29T04:56:10;13.10;;;3.60;;
13959;SDS011;7052;51.050;3.716;2023-05-29T04:58:38;12.07;;;3.80;;
13959;SDS011;7052;51.050;3.716;2023-05-29T05:01:07;12.20;;;3.70;;
13959;SDS011;7052;51.050;3.716;2023-05-29T05:03:34;11.40;;;3.90;;
13959;SDS011;7052;51.050;3.716;2023-05-29T05:06:01;12.50;;;3.73;;
13959;SDS011;7052;51.050;3.716;2023-05-29T05:08:30;12.50;;;3.00;;
13959;SDS011;7052;51.050;3.716;2023-05-29T05:10:59;8.93;;;3.50;;
13959;SDS011;7052;51.050;3.716;2023-05-29T05:13:26;9.10;;;3.17;;
13959;SDS011;7052;51.050;3.716;2023-05-29T05:15:54;12.50;;;3.30;;
13959;SDS011;7052;51.050;3.716;2023-05-29T05:18:21;10.63;;;3.40;;
13959;SDS011;7052;51.050;3.716;2023-05-29T05:20:48;9.67;;;3.57;;
13959;SDS011;7052;51.050;3.716;2023-05-29T05:23:15;12.73;;;3.60;;
13959;SDS011;7052;51.050;3.716;2023-05-29T05:25:42;12.20;;;3.80;;
13959;SDS011;7052;51.050;3.716;2023-05-29T05:28:09;18.13;;;4.03;;
13959;SDS011;7052;51.050;3.716;2023-05-29T05:30:39;14.70;;;3.97;;
13959;SDS011;7052;51.050;3.716;2023-05-29T05:33:09;9.83;;;3.40;;
13959;SDS011;7052;51.050;3.716;2023-05-29T05:35:36;10.53;;;3.50;;
13959;SDS011;7052;51.050;3.716;2023-05-29T05:38:03;12.90;;;3.63;;
13959;SDS011;7052;51.050;3.716;2023-05-29T05:40:30;15.17;;;4.27;;
13959;SDS011;7052;51.050;3.716;2023-05-29T05:43:00;11.97;;;3.40;;
13959;SDS011;7052;51.050;3.716;2023-05-29T05:45:31;15.67;;;3.80;;
13959;SDS011;7052;51.050;3.716;2023-05-29T05:47:59;7.43;;;3.53;;
13959;SDS011;7052;51.050;3.716;2023-05-29T05:50:28;13.80;;;3.23;;
13959;SDS011;7052;51.050;3.716;2023-05-29T05:52:55;11.87;;;3.67;;
13959;SDS011;7052;51.050;3.716;2023-05-29T05:55:22;16.10;;;3.80;;
13959;SDS011;7052;51.050;3.716;2023-05-29T05:57:49;14.83;;;3.57;;
13959;SDS011;7052;51.050;3.716;2023-05-29T06:00:16;9.50;;;3.60;;
13959;SDS011;7052;51.050;3.716;2023-05-29T06:02:43;10.90;;;3.73;;
13959;SDS011;7052;51.050;3.716;2023-05-29T06:05:11;11.57;;;3.10;;
13959;SDS011;7052;51.050;3.716;2023-05-29T06:07:39;8.98;;;3.15;;
13959;SDS011;7052;51.050;3.716;2023-05-29T06:10:07;8.57;;;3.25;;
13959;SDS011;7052;51.050;3.716;2023-05-29T06:12:35;10.30;;;3.58;;
13959;SDS011;7052;51.050;3.716;2023-05-29T06:15:06;7.60;;;3.40;;
13959;SDS011;7052;51.050;3.716;2023-05-29T06:17:33;10.00;;;3.20;;
13959;SDS011;7052;51.050;3.716;2023-05-29T06:20:00;11.75;;;3.50;;
13959;SDS011;7052;51.050;3.716;2023-05-29T06:22:29;10.57;;;3.65;;
13959;SDS011;7052;51.050;3.716;2023-05-29T06:24:58;10.55;;;3.35;;
13959;SDS011;7052;51.050;3.716;2023-05-29T06:27:25;9.77;;;3.78;;
13959;SDS011;7052;51.050;3.716;2023-05-29T06:29:53;9.18;;;3.58;;
13959;SDS011;7052;51.050;3.716;2023-05-29T06:32:20;12.02;;;3.13;;
13959;SDS011;7052;51.050;3.716;2023-05-29T06:34:47;8.73;;;3.47;;
13959;SDS011;7052;51.050;3.716;2023-05-29T06:37:14;8.80;;;3.58;;
13959;SDS011;7052;51.050;3.716;2023-05-29T06:39:43;7.78;;;3.03;;
13959;SDS011;7052;51.050;3.716;2023-05-29T06:42:13;8.30;;;3.00;;
13959;SDS011;7052;51.050;3.716;2023-05-29T06:44:39;12.43;;;3.53;;
13959;SDS011;7052;51.050;3.716;2023-05-29T06:47:07;10.50;;;3.80;;
13959;SDS011;7052;51.050;3.716;2023-05-29T06:49:34;11.77;;;3.38;;
13959;SDS011;7052;51.050;3.716;2023-05-29T06:52:02;8.18;;;2.92;;
13959;SDS011;7052;51.050;3.716;2023-05-29T06:54:29;7.50;;;3.03;;
13959;SDS011;7052;51.050;3.716;2023-05-29T06:56:56;14.02;;;3.60;;
13959;SDS011;7052;51.050;3.716;2023-05-29T06:59:28;8.15;;;3.10;;
13959;SDS011;7052;51.050;3.716;2023-05-29T07:01:55;8.02;;;3.10;;
13959;SDS011;7052;51.050;3.716;2023-05-29T07:04:22;10.85;;;3.42;;
13959;SDS011;7052;51.050;3.716;2023-05-29T07:06:49;9.00;;;3.47;;
13959;SDS011;7052;51.050;3.716;2023-05-29T07:09:16;7.30;;;3.05;;
13959;SDS011;7052;51.050;3.716;2023-05-29T07:11:45;6.68;;;2.97;;
13959;SDS011;7052;51.050;3.716;2023-05-29T07:14:13;9.75;;;3.33;;
13959;SDS011;7052;51.050;3.716;2023-05-29T07:16:42;8.35;;;3.28;;
13959;SDS011;7052;51.050;3.716;2023-05-29T07:19:09;8.40;;;3.10;;
13959;SDS011;7052;51.050;3.716;2023-05-29T07:21:38;6.53;;;3.10;;
13959;SDS011;7052;51.050;3.716;2023-05-29T07:24:06;11.00;;;2.97;;
13959;SDS011;7052;51.050;3.716;2023-05-29T07:26:33;10.60;;;3.50;;
13959;SDS011;7052;51.050;3.716;2023-05-29T07:29:00;8.50;;;3.33;;
13959;SDS011;7052;51.050;3.716;2023-05-29T07:31:27;7.15;;;3.30;;
13959;SDS011;7052;51.050;3.716;2023-05-29T07:33:58;10.55;;;3.72;;
13959;SDS011;7052;51.050;3.716;2023-05-29T07:36:31;10.57;;;3.15;;
13959;SDS011;7052;51.050;3.716;2023-05-29T07:38:59;8.75;;;2.85;;
13959;SDS011;7052;51.050;3.716;2023-05-29T07:41:27;10.68;;;3.40;;
13959;SDS011;7052;51.050;3.716;2023-05-29T07:43:56;9.20;;;3.60;;
13959;SDS011;7052;51.050;3.716;2023-05-29T07:46:24;8.40;;;3.17;;
13959;SDS011;7052;51.050;3.716;2023-05-29T07:48:52;6.78;;;3.05;;
13959;SDS011;7052;51.050;3.716;2023-05-29T07:51:20;10.95;;;3.08;;
13959;SDS011;7052;51.050;3.716;2023-05-29T07:53:49;8.02;;;3.20;;
13959;SDS011;7052;51.050;3.716;2023-05-29T07:56:16;5.75;;;2.95;;
13959;SDS011;7052;51.050;3.716;2023-05-29T07:58:46;10.10;;;3.28;;
13959;SDS011;7052;51.050;3.716;2023-05-29T08:01:13;7.50;;;3.13;;
13959;SDS011;7052;51.050;3.716;2023-05-29T08:03:41;13.38;;;3.38;;
13959;SDS011;7052;51.050;3.716;2023-05-29T08:06:08;10.13;;;3.15;;
13959;SDS011;7052;51.050;3.716;2023-05-29T08:08:36;11.23;;;3.25;;
13959;SDS011;7052;51.050;3.716;2023-05-29T08:11:04;8.32;;;3.08;;
13959;SDS011;7052;51.050;3.716;2023-05-29T08:13:31;10.35;;;3.60;;
13959;SDS011;7052;51.050;3.716;2023-05-29T08:15:58;8.95;;;3.50;;
13959;SDS011;7052;51.050;3.716;2023-05-29T08:18:25;11.50;;;3.65;;
13959;SDS011;7052;51.050;3.716;2023-05-29T08:20:53;7.85;;;2.95;;
13959;SDS011;7052;51.050;3.716;2023-05-29T08:23:25;7.60;;;3.10;;
13959;SDS011;7052;51.050;3.716;2023-05-29T08:25:58;7.65;;;3.53;;
13959;SDS011;7052;51.050;3.716;2023-05-29T08:31:04;11.70;;;3.75;;
13959;SDS011;7052;51.050;3.716;2023-05-29T08:33:35;10.82;;;3.50;;
13959;SDS011;7052;51.050;3.716;2023-05-29T08:36:03;7.43;;;2.67;;
13959;SDS011;7052;51.050;3.716;2023-05-29T08:38:31;10.23;;;3.10;;
13959;SDS011;7052;51.050;3.716;2023-05-29T08:41:00;9.60;;;3.70;;
13959;SDS011;7052;51.050;3.716;2023-05-29T08:43:29;9.07;;;3.50;;
13959;SDS011;7052;51.050;3.716;2023-05-29T08:45:58;10.15;;;2.92;;
13959;SDS011;7052;51.050;3.716;2023-05-29T08:48:28;8.75;;;3.38;;
13959;SDS011;7052;51.050;3.716;2023-05-29T08:50:57;11.23;;;3.50;;
13959;SDS011;7052;51.050;3.716;2023-05-29T08:53:27;10.63;;;3.47;;
13959;SDS011;7052;51.050;3.716;2023-05-29T08:56:01;8.63;;;3.40;;
13959;SDS011;7052;51.050;3.716;2023-05-29T08:58:29;9.65;;;3.13;;
13959;SDS011;7052;51.050;3.716;2023-05-29T09:00:57;8.75;;;3.38;;
13959;SDS011;7052;51.050;3.716;2023-05-29T09:03:26;8.40;;;3.00;;
13959;SDS011;7052;51.050;3.716;2023-05-29T09:05:57;9.43;;;3.40;;
13959;SDS011;7052;51.050;3.716;2023-05-29T09:08:25;9.27;;;3.30;;
13959;SDS011;7052;51.050;3.716;2023-05-29T09:10:53;17.42;;;3.83;;
13959;SDS011;7052;51.050;3.716;2023-05-29T09:13:24;9.80;;;3.83;;
13959;SDS011;7052;51.050;3.716;2023-05-29T09:15:56;7.72;;;3.60;;
13959;SDS011;7052;51.050;3.716;2023-05-29T09:18:28;9.07;;;3.38;;
13959;SDS011;7052;51.050;3.716;2023-05-29T09:20:56;10.00;;;3.35;;
13959;SDS011;7052;51.050;3.716;2023-05-29T09:23:25;10.35;;;3.53;;
13959;SDS011;7052;51.050;3.716;2023-05-29T09:25:52;10.20;;;4.22;;
13959;SDS011;7052;51.050;3.716;2023-05-29T09:28:25;10.90;;;4.18;;
13959;SDS011;7052;51.050;3.716;2023-05-29T09:30:56;8.13;;;3.45;;
13959;SDS011;7052;51.050;3.716;2023-05-29T09:33:23;5.97;;;2.67;;
13959;SDS011;7052;51.050;3.716;2023-05-29T09:35:52;8.85;;;3.83;;
13959;SDS011;7052;51.050;3.716;2023-05-29T09:38:19;10.82;;;3.50;;
13959;SDS011;7052;51.050;3.716;2023-05-29T09:40:46;9.55;;;3.72;;
13959;SDS011;7052;51.050;3.716;2023-05-29T09:43:14;9.23;;;3.97;;
13959;SDS011;7052;51.050;3.716;2023-05-29T09:45:44;7.35;;;3.47;;
13959;SDS011;7052;51.050;3.716;2023-05-29T09:48:15;9.27;;;3.75;;
13959;SDS011;7052;51.050;3.716;2023-05-29T09:50:43;12.45;;;4.28;;
13959;SDS011;7052;51.050;3.716;2023-05-29T09:53:16;11.55;;;3.95;;
13959;SDS011;7052;51.050;3.716;2023-05-29T09:55:45;10.25;;;3.78;;
13959;SDS011;7052;51.050;3.716;2023-05-29T09:58:13;11.43;;;3.92;;
13959;SDS011;7052;51.050;3.716;2023-05-29T10:00:41;12.43;;;4.28;;
13959;SDS011;7052;51.050;3.716;2023-05-29T10:03:11;8.70;;;3.65;;
13959;SDS011;7052;51.050;3.716;2023-05-29T10:05:38;9.43;;;3.20;;
13959;SDS011;7052;51.050;3.716;2023-05-29T10:08:06;10.02;;;3.97;;
13959;SDS011;7052;51.050;3.716;2023-05-29T10:10:39;9.38;;;3.78;;
13959;SDS011;7052;51.050;3.716;2023-05-29T10:13:13;10.43;;;3.50;;
13959;SDS011;7052;51.050;3.716;2023-05-29T10:15:41;12.02;;;4.25;;
13959;SDS011;7052;51.050;3.716;2023-05-29T10:18:16;11.65;;;4.00;;
13959;SDS011;7052;51.050;3.716;2023-05-29T10:20:47;13.68;;;4.00;;
13959;SDS011;7052;51.050;3.716;2023-05-29T10:23:21;11.80;;;3.67;;
13959;SDS011;7052;51.050;3.716;2023-05-29T10:25:49;13.80;;;4.60;;
13959;SDS011;7052;51.050;3.716;2023-05-29T10:28:19;8.60;;;3.10;;
13959;SDS011;7052;51.050;3.716;2023-05-29T10:30:49;10.13;;;3.80;;
13959;SDS011;7052;51.050;3.716;2023-05-29T10:33:26;8.88;;;3.75;;
13959;SDS011;7052;51.050;3.716;2023-05-29T10:36:01;12.50;;;3.60;;
13959;SDS011;7052;51.050;3.716;2023-05-29T10:38:40;10.15;;;3.72;;
13959;SDS011;7052;51.050;3.716;2023-05-29T10:47:04;9.90;;;3.43;;
13959;SDS011;7052;51.050;3.716;2023-05-29T10:49:35;7.88;;;3.28;;
13959;SDS011;7052;51.050;3.716;2023-05-29T10:52:10;9.43;;;3.60;;
13959;SDS011;7052;51.050;3.716;2023-05-29T10:54:41;11.95;;;3.95;;
13959;SDS011;7052;51.050;3.716;2023-05-29T10:57:18;8.73;;;3.92;;
13959;SDS011;7052;51.050;3.716;2023-05-29T10:59:47;9.45;;;3.42;;
13959;SDS011;7052;51.050;3.716;2023-05-29T11:02:25;8.52;;;3.28;;
13959;SDS011;7052;51.050;3.716;2023-05-29T11:05:06;9.85;;;3.60;;
13959;SDS011;7052;51.050;3.716;2023-05-29T11:07:50;8.60;;;3.53;;
13959;SDS011;7052;51.050;3.716;2023-05-29T11:13:08;8.35;;;3.58;;
13959;SDS011;7052;51.050;3.716;2023-05-29T11:15:36;10.15;;;3.72;;
13959;SDS011;7052;51.050;3.716;2023-05-29T11:18:06;9.95;;;3.53;;
13959;SDS011;7052;51.050;3.716;2023-05-29T11:20:42;8.23;;;3.40;;
13959;SDS011;7052;51.050;3.716;2023-05-29T11:23:17;10.32;;;3.70;;
13959;SDS011;7052;51.050;3.716;2023-05-29T11:25:45;7.60;;;3.60;;
13959;SDS011;7052;51.050;3.716;2023-05-29T11:28:13;9.55;;;4.13;;
13959;SDS011;7052;51.050;3.716;2023-05-29T11:30:46;9.38;;;3.03;;
13959;SDS011;7052;51.050;3.716;2023-05-29T11:33:46;6.32;;;3.35;;
13959;SDS011;7052;51.050;3.716;2023-05-29T11:36:17;12.07;;;3.40;;
13959;SDS011;7052;51.050;3.716;2023-05-29T11:38:45;8.20;;;3.75;;
13959;SDS011;7052;51.050;3.716;2023-05-29T11:41:12;8.82;;;3.65;;
13959;SDS011;7052;51.050;3.716;2023-05-29T11:43:39;10.13;;;3.85;;
13959;SDS011;7052;51.050;3.716;2023-05-29T11:46:16;12.00;;;3.55;;
13959;SDS011;7052;51.050;3.716;2023-05-29T11:48:48;9.52;;;3.45;;
13959;SDS011;7052;51.050;3.716;2023-05-29T11:51:20;11.63;;;4.05;;
13959;SDS011;7052;51.050;3.716;2023-05-29T11:53:48;8.13;;;3.30;;
13959;SDS011;7052;51.050;3.716;2023-05-29T11:56:23;10.88;;;4.00;;
13959;SDS011;7052;51.050;3.716;2023-05-29T11:58:50;7.40;;;3.05;;
13959;SDS011;7052;51.050;3.716;2023-05-29T12:01:20;7.85;;;3.58;;
13959;SDS011;7052;51.050;3.716;2023-05-29T12:03:48;8.55;;;3.17;;
13959;SDS011;7052;51.050;3.716;2023-05-29T12:06:16;9.50;;;3.70;;
13959;SDS011;7052;51.050;3.716;2023-05-29T12:08:59;10.93;;;3.97;;
13959;SDS011;7052;51.050;3.716;2023-05-29T12:11:26;10.20;;;3.67;;
13959;SDS011;7052;51.050;3.716;2023-05-29T12:13:57;7.60;;;3.38;;
13959;SDS011;7052;51.050;3.716;2023-05-29T12:16:26;10.07;;;3.63;;
13959;SDS011;7052;51.050;3.716;2023-05-29T12:18:54;8.23;;;3.75;;
13959;SDS011;7052;51.050;3.716;2023-05-29T12:21:26;9.30;;;3.50;;
13959;SDS011;7052;51.050;3.716;2023-05-29T12:23:54;8.52;;;3.30;;
13959;SDS011;7052;51.050;3.716;2023-05-29T12:26:23;10.15;;;3.40;;
13959;SDS011;7052;51.050;3.716;2023-05-29T12:28:51;7.85;;;3.85;;
13959;SDS011;7052;51.050;3.716;2023-05-29T12:31:28;12.30;;;4.35;;
13959;SDS011;7052;51.050;3.716;2023-05-29T12:34:00;8.55;;;4.05;;
13959;SDS011;7052;51.050;3.716;2023-05-29T12:37:09;9.50;;;3.35;;
13959;SDS011;7052;51.050;3.716;2023-05-29T13:32:44;9.63;;;4.10;;
13959;SDS011;7052;51.050;3.716;2023-05-29T13:35:12;13.63;;;4.38;;
13959;SDS011;7052;51.050;3.716;2023-05-29T13:37:42;10.13;;;4.07;;
13959;SDS011;7052;51.050;3.716;2023-05-29T13:40:10;6.20;;;3.30;;
13959;SDS011;7052;51.050;3.716;2023-05-29T13:42:39;7.72;;;3.20;;
13959;SDS011;7052;51.050;3.716;2023-05-29T13:45:07;6.28;;;3.05;;
13959;SDS011;7052;51.050;3.716;2023-05-29T13:47:36;6.70;;;3.10;;
13959;SDS011;7052;51.050;3.716;2023-05-29T13:50:08;6.53;;;2.95;;
13959;SDS011;7052;51.050;3.716;2023-05-29T13:52:35;7.95;;;3.15;;
13959;SDS011;7052;51.050;3.716;2023-05-29T13:55:03;3.75;;;2.92;;
13959;SDS011;7052;51.050;3.716;2023-05-29T13:57:33;7.32;;;3.08;;
13959;SDS011;7052;51.050;3.716;2023-05-29T14:00:01;8.10;;;3.10;;
13959;SDS011;7052;51.050;3.716;2023-05-29T14:02:31;6.15;;;2.80;;
13959;SDS011;7052;51.050;3.716;2023-05-29T14:04:58;7.40;;;3.13;;
13959;SDS011;7052;51.050;3.716;2023-05-29T14:07:29;6.38;;;3.40;;
13959;SDS011;7052;51.050;3.716;2023-05-29T14:09:55;6.75;;;2.88;;
13959;SDS011;7052;51.050;3.716;2023-05-29T14:12:23;6.03;;;3.30;;
13959;SDS011;7052;51.050;3.716;2023-05-29T14:14:50;8.18;;;3.15;;
13959;SDS011;7052;51.050;3.716;2023-05-29T14:17:17;6.45;;;2.85;;
13959;SDS011;7052;51.050;3.716;2023-05-29T14:19:44;6.22;;;2.88;;
13959;SDS011;7052;51.050;3.716;2023-05-29T14:22:14;7.28;;;3.28;;
13959;SDS011;7052;51.050;3.716;2023-05-29T14:24:50;9.30;;;3.60;;
13959;SDS011;7052;51.050;3.716;2023-05-29T14:27:18;6.45;;;3.20;;
13959;SDS011;7052;51.050;3.716;2023-05-29T14:29:44;6.78;;;3.50;;
13959;SDS011;7052;51.050;3.716;2023-05-29T14:32:13;10.77;;;3.70;;
13959;SDS011;7052;51.050;3.716;2023-05-29T14:34:41;10.50;;;3.90;;
13959;SDS011;7052;51.050;3.716;2023-05-29T14:37:09;9.13;;;3.50;;
13959;SDS011;7052;51.050;3.716;2023-05-29T14:39:37;8.15;;;3.60;;
13959;SDS011;7052;51.050;3.716;2023-05-29T14:42:08;7.93;;;3.30;;
13959;SDS011;7052;51.050;3.716;2023-05-29T14:44:36;9.35;;;3.83;;
13959;SDS011;7052;51.050;3.716;2023-05-29T14:47:03;11.18;;;3.90;;
13959;SDS011;7052;51.050;3.716;2023-05-29T14:49:31;10.30;;;4.22;;
13959;SDS011;7052;51.050;3.716;2023-05-29T14:51:59;6.28;;;3.13;;
13959;SDS011;7052;51.050;3.716;2023-05-29T14:54:28;13.55;;;4.40;;
13959;SDS011;7052;51.050;3.716;2023-05-29T14:56:54;8.93;;;3.45;;
13959;SDS011;7052;51.050;3.716;2023-05-29T14:59:24;11.82;;;3.88;;
13959;SDS011;7052;51.050;3.716;2023-05-29T15:01:50;9.88;;;4.03;;
13959;SDS011;7052;51.050;3.716;2023-05-29T15:04:19;12.30;;;4.35;;
13959;SDS011;7052;51.050;3.716;2023-05-29T15:06:46;7.55;;;3.53;;
13959;SDS011;7052;51.050;3.716;2023-05-29T15:09:14;11.20;;;4.55;;
13959;SDS011;7052;51.050;3.716;2023-05-29T15:11:42;9.63;;;3.97;;
13959;SDS011;7052;51.050;3.716;2023-05-29T15:14:10;8.63;;;4.07;;
13959;SDS011;7052;51.050;3.716;2023-05-29T15:16:41;10.13;;;3.90;;
13959;SDS011;7052;51.050;3.716;2023-05-29T15:19:07;10.00;;;4.10;;
13959;SDS011;7052;51.050;3.716;2023-05-29T15:21:35;11.80;;;4.28;;
13959;SDS011;7052;51.050;3.716;2023-05-29T15:24:03;13.27;;;4.65;;
13959;SDS011;7052;51.050;3.716;2023-05-29T15:26:31;13.93;;;4.95;;
13959;SDS011;7052;51.050;3.716;2023-05-29T15:28:59;12.15;;;4.55;;
13959;SDS011;7052;51.050;3.716;2023-05-29T15:31:26;12.35;;;5.28;;
13959;SDS011;7052;51.050;3.716;2023-05-29T15:33:55;11.25;;;4.07;;
13959;SDS011;7052;51.050;3.716;2023-05-29T15:36:22;10.15;;;4.47;;
13959;SDS011;7052;51.050;3.716;2023-05-29T15:38:49;9.32;;;4.10;;
13959;SDS011;7052;51.050;3.716;2023-05-29T15:41:16;13.80;;;4.70;;
13959;SDS011;7052;51.050;3.716;2023-05-29T15:43:43;9.50;;;4.07;;
13959;SDS011;7052;51.050;3.716;2023-05-29T15:46:10;14.80;;;4.82;;
13959;SDS011;7052;51.050;3.716;2023-05-29T15:48:37;12.32;;;4.45;;
13959;SDS011;7052;51.050;3.716;2023-05-29T15:51:05;9.98;;;4.53;;
13959;SDS011;7052;51.050;3.716;2023-05-29T15:53:32;11.48;;;4.90;;
13959;SDS011;7052;51.050;3.716;2023-05-29T15:56:00;13.65;;;4.85;;
13959;SDS011;7052;51.050;3.716;2023-05-29T15:58:27;16.88;;;5.25;;
13959;SDS011;7052;51.050;3.716;2023-05-29T16:00:55;12.20;;;5.15;;
13959;SDS011;7052;51.050;3.716;2023-05-29T16:03:23;13.73;;;5.10;;
13959;SDS011;7052;51.050;3.716;2023-05-29T16:05:49;11.52;;;4.68;;
13959;SDS011;7052;51.050;3.716;2023-05-29T16:08:19;11.05;;;5.40;;
13959;SDS011;7052;51.050;3.716;2023-05-29T16:10:46;11.63;;;5.53;;
13959;SDS011;7052;51.050;3.716;2023-05-29T16:13:15;11.15;;;4.60;;
13959;SDS011;7052;51.050;3.716;2023-05-29T16:15:42;10.30;;;4.45;;
13959;SDS011;7052;51.050;3.716;2023-05-29T16:18:11;9.68;;;4.25;;
13959;SDS011;7052;51.050;3.716;2023-05-29T16:20:39;15.05;;;4.50;;
13959;SDS011;7052;51.050;3.716;2023-05-29T16:23:10;16.35;;;6.25;;
13959;SDS011;7052;51.050;3.716;2023-05-29T16:25:42;13.05;;;5.75;;
13959;SDS011;7052;51.050;3.716;2023-05-29T16:28:09;12.45;;;4.60;;
13959;SDS011;7052;51.050;3.716;2023-05-29T16:30:39;11.88;;;5.13;;
13959;SDS011;7052;51.050;3.716;2023-05-29T16:33:09;12.57;;;4.07;;
13959;SDS011;7052;51.050;3.716;2023-05-29T16:35:38;17.38;;;7.53;;